Time;durP1;ratioP1;P1;durP2;ratioP2;P2;SDS_P1;SDS_P2;PMS_P1;PMS_P2;Temp;Humidity;BMP_temperature;BMP_pressure;BME280_temperature;BME280_humidity;BME280_pressure;Samples;Min_cycle;Max_cycle;Signal;HPM_P1;HPM_P2
2023/07/12 00:02:42;;;;;;;;;;;;;;;;;;;;;
2023/07/12 00:05:25;;;;;;;;;;;19.00;99.90;;;;;;4994132;28;19952;-94
2023/07/12 00:07:53;;;;;;;;;;;18.90;99.90;;;;;;4994766;28;19983;-94
2023/07/12 00:11:01;;;;;;;;;;;;;;;;;;;;;
2023/07/12 00:14:16;;;;;;;;;;;19.30;99.90;;;;;;4916233;29;19931;-94
2023/07/12 00:33:46;;;;;;;;;;;;;;;;;;;;;
2023/07/12 05:30:00;;;;;;;;;;;17.90;99.90;;;;;;4833767;29;20007;-90
2023/07/12 05:32:36;;;;;;;;;;;;;;;;;;;;;
2023/07/12 05:35:19;;;;;;;;;;;17.50;99.90;;;;;;4835424;29;20093;-87
2023/07/12 05:37:54;;;;;;;;;;;17.50;99.90;;;;;;4820177;29;20449;-88
2023/07/12 05:40:20;;;;;;;;;;;17.60;99.90;;;;;;4841693;29;19931;-87
2023/07/12 05:42:46;;;;;;;;;;;17.60;99.90;;;;;;4879252;29;19927;-87
2023/07/12 05:45:15;;;;;;;;;;;17.70;99.90;;;;;;4894609;29;20006;-92
2023/07/12 05:53:58;;;;;;;;;;;;;;;;;;;;;
2023/07/12 06:10:55;;;;;;;;;;;;;;;;;;;;;
2023/07/12 06:33:41;;;;;;;;;;;18.50;99.90;;;;;;4996965;23;19971;-96
2023/07/12 06:36:37;;;;;;;;;;;18.70;99.90;;;;;;4926448;29;19969;-95
2023/07/12 06:39:26;;;;;;;;;;;18.90;99.90;;;;;;4913329;29;19937;-96
2023/07/12 06:42:10;;;;;;;;;;;19.20;99.90;;;;;;4898692;29;20460;-96
2023/07/12 06:44:42;;;;;;;;;;;20.10;99.90;;;;;;4898894;29;20054;-96
2023/07/12 06:47:07;;;;;;;;;;;19.50;99.90;;;;;;4905959;29;19931;-95
2023/07/12 06:56:00;;;;;;;;;;;19.90;99.90;;;;;;4872442;29;20050;-96
2023/07/12 06:58:37;;;;;;;;;;;20.10;99.90;;;;;;4846856;29;20019;-96
2023/07/12 07:01:35;;;;;;;;;;;20.10;99.90;;;;;;4861933;29;20480;-95
2023/07/12 07:04:29;;;;;;;;;;;20.20;99.90;;;;;;4912426;29;20447;-96
2023/07/12 07:10:29;;;;;;;;;;;20.40;99.90;;;;;;4917950;29;20431;-96
2023/07/12 07:13:26;;;;;;;;;;;20.50;99.90;;;;;;4918080;29;20398;-95
2023/07/12 07:16:29;;;;;;;;;;;;;;;;;;;;;
2023/07/12 07:19:17;;;;;;;;;;;20.60;99.90;;;;;;4918325;29;20018;-96
2023/07/12 07:24:49;;;;;;;;;;;20.80;99.90;;;;;;4933840;29;19927;-96
2023/07/12 07:31:34;;;;;;;;;;;20.90;99.90;;;;;;4891795;29;19958;-96
2023/07/12 07:34:21;;;;;;;;;;;21.10;99.90;;;;;;4837598;29;19934;-96
2023/07/12 07:40:13;;;;;;;;;;;21.40;99.90;;;;;;4815208;29;19929;-95
2023/07/12 07:46:01;;;;;;;;;;;21.50;99.90;;;;;;4867507;29;20342;-96
2023/07/12 07:55:09;;;;;;;;;;;21.30;99.90;;;;;;4838228;29;19928;-96
2023/07/12 07:57:50;;;;;;;;;;;21.20;99.90;;;;;;4884772;29;19988;-95
2023/07/12 08:00:33;;;;;;;;;;;21.30;99.90;;;;;;4841573;29;20009;-96
2023/07/12 08:03:27;;;;;;;;;;;21.10;99.90;;;;;;4833860;29;20118;-94
2023/07/12 08:06:14;;;;;;;;;;;21.00;99.90;;;;;;4822181;29;19928;-95
2023/07/12 08:08:42;;;;;;;;;;;20.60;99.90;;;;;;4826222;29;19932;-96
2023/07/12 08:11:37;;;;;;;;;;;20.40;99.90;;;;;;4826034;29;19928;-96
2023/07/12 08:14:31;;;;;;;;;;;20.20;99.90;;;;;;4818940;29;19927;-95
2023/07/12 08:19:54;;;;;;;;;;;19.90;99.90;;;;;;4781248;29;19982;-94
2023/07/12 08:22:47;;;;;;;;;;;19.90;99.90;;;;;;4858492;29;20003;-95
2023/07/12 08:25:18;;;;;;;;;;;20.10;99.90;;;;;;4863677;29;20427;-96
2023/07/12 08:28:27;;;;;;;;;;;20.20;99.90;;;;;;4841483;29;20170;-96
2023/07/12 08:32:19;;;;;;;;;;;20.10;99.90;;;;;;4858208;29;19932;-95
2023/07/12 08:39:00;;;;;;;;;;;19.70;99.90;;;;;;4894492;29;19930;-96
2023/07/12 08:44:52;;;;;;;;;;;19.40;99.90;;;;;;4888218;29;19935;-96
2023/07/12 08:55:02;;;;;;;;;;;19.60;99.90;;;;;;4836293;29;19939;-96
2023/07/12 08:58:21;;;;;;;;;;;19.60;99.90;;;;;;4832505;29;19986;-95
2023/07/12 09:01:39;;;;;;;;;;;;;;;;;;;;;
2023/07/12 09:07:45;;;;;;;;;;;19.70;99.90;;;;;;4838441;29;19932;-96
2023/07/12 09:11:07;;;;;;;;;;;19.80;99.90;;;;;;4823943;29;19932;-96
2023/07/12 09:13:40;;;;;;;;;;;19.90;99.90;;;;;;4815193;29;19998;-96
2023/07/12 09:16:25;;;;;;;;;;;20.30;99.90;;;;;;4869367;29;20296;-96
2023/07/12 09:23:17;;;;;;;;;;;;;;;;;;;;;
2023/07/12 09:32:44;;;;;;;;;;;21.60;99.90;;;;;;4796648;29;19933;-96
2023/07/12 09:35:29;;;;;;;;;;;21.80;99.90;;;;;;4820886;29;20000;-95
2023/07/12 09:38:27;;;;;;;;;;;21.40;99.90;;;;;;4747537;30;19941;-96
2023/07/12 09:41:24;;;;;;;;;;;21.30;99.90;;;;;;4735629;30;20028;-96
2023/07/12 09:44:20;;;;;;;;;;;21.00;99.90;;;;;;4729512;30;20514;-96
2023/07/12 09:48:02;;;;;;;;;;;;;;;;;;;;;
2023/07/12 09:51:15;;;;;;;;;;;20.70;99.90;;;;;;4748201;30;20460;-96
2023/07/12 09:54:26;;;;;;;;;;;20.60;99.90;;;;;;4683040;30;20309;-96
2023/07/12 09:57:59;;;;;;;;;;;20.60;99.90;;;;;;4800691;29;19936;-95
2023/07/12 10:00:31;;;;;;;;;;;20.60;99.90;;;;;;4813169;29;19955;-95
2023/07/12 10:03:31;;;;;;;;;;;21.00;99.90;;;;;;4853514;29;20015;-96
2023/07/12 10:06:44;;;;;;;;;;;21.20;99.90;;;;;;4849543;29;19931;-95
2023/07/12 10:09:33;;;;;;;;;;;21.60;99.90;;;;;;4837884;29;19972;-95
2023/07/12 10:18:32;;;;;;;;;;;22.50;99.90;;;;;;4783998;29;19940;-96
2023/07/12 10:31:18;;;;;;;;;;;22.00;99.90;;;;;;4835606;29;19936;-96
2023/07/12 10:34:28;;;;;;;;;;;22.10;99.90;;;;;;4838998;29;19929;-95
2023/07/12 10:37:05;;;;;;;;;;;22.30;99.90;;;;;;4828356;29;19940;-96
2023/07/12 10:42:46;;;;;;;;;;;22.30;99.90;;;;;;4842353;29;20335;-95
2023/07/12 10:45:42;;;;;;;;;;;22.10;99.90;;;;;;4808411;29;19980;-95
2023/07/12 10:51:50;;;;;;;;;;;21.80;99.90;;;;;;4731647;30;20443;-96
2023/07/12 10:54:30;;;;;;;;;;;21.50;99.90;;;;;;4700298;30;20050;-95
2023/07/12 10:57:12;;;;;;;;;;;21.50;99.90;;;;;;4702444;30;20396;-96
2023/07/12 11:03:06;;;;;;;;;;;21.60;99.90;;;;;;4800973;29;19931;-96
2023/07/12 11:05:58;;;;;;;;;;;21.80;99.90;;;;;;4888126;29;19935;-96
2023/07/12 11:08:33;;;;;;;;;;;21.70;99.90;;;;;;4817809;29;19931;-96
2023/07/12 11:11:02;;;;;;;;;;;21.90;99.90;;;;;;4849197;29;19932;-94
2023/07/12 11:13:48;;;;;;;;;;;22.00;99.90;;;;;;4824923;29;20376;-96
2023/07/12 11:16:15;;;;;;;;;;;22.00;99.90;;;;;;4830280;29;20021;-96
2023/07/12 11:18:51;;;;;;;;;;;21.80;99.90;;;;;;4836764;29;19936;-95
2023/07/12 11:21:47;;;;;;;;;;;21.70;99.90;;;;;;4829489;29;20066;-95
2023/07/12 11:24:28;;;;;;;;;;;21.90;99.90;;;;;;4846312;29;20431;-95
2023/07/12 11:27:00;;;;;;;;;;;22.40;99.90;;;;;;4836622;29;19932;-96
2023/07/12 11:29:53;;;;;;;;;;;22.30;99.90;;;;;;4854285;29;20023;-95
2023/07/12 11:32:22;;;;;;;;;;;22.40;99.90;;;;;;4847472;29;19928;-96
2023/07/12 11:38:37;;;;;;;;;;;22.60;99.90;;;;;;4798893;29;19929;-96
2023/07/12 11:44:20;;;;;;;;;;;23.00;99.90;;;;;;4906230;29;20030;-94
2023/07/12 11:47:05;;;;;;;;;;;23.20;99.90;;;;;;4898794;29;19979;-96
2023/07/12 11:49:41;;;;;;;;;;;23.30;99.90;;;;;;4897687;29;19937;-94
2023/07/12 11:55:32;;;;;;;;;;;23.50;99.90;;;;;;4885354;29;20029;-95
2023/07/12 12:04:41;;;;;;;;;;;23.60;99.90;;;;;;4902730;29;20371;-95
2023/07/12 12:07:34;;;;;;;;;;;23.50;99.90;;;;;;4824215;29;19932;-96
2023/07/12 12:10:32;;;;;;;;;;;23.50;99.90;;;;;;4838909;29;19939;-96
2023/07/12 12:13:27;;;;;;;;;;;23.40;99.90;;;;;;4799116;29;20356;-96
2023/07/12 12:16:04;;;;;;;;;;;23.40;99.90;;;;;;4813436;29;20471;-96
2023/07/12 12:18:50;;;;;;;;;;;23.50;99.90;;;;;;4891385;29;20353;-96
2023/07/12 12:24:16;;;;;;;;;;;23.00;99.90;;;;;;4904161;29;19966;-96
2023/07/12 12:26:52;;;;;;;;;;;23.20;99.90;;;;;;4911971;29;20506;-96
2023/07/12 12:29:42;;;;;;;;;;;23.20;99.90;;;;;;4931035;29;19923;-96
2023/07/12 12:32:16;;;;;;;;;;;23.30;99.90;;;;;;4908242;29;19927;-96
2023/07/12 12:34:58;;;;;;;;;;;23.40;99.90;;;;;;4912114;29;19990;-96
2023/07/12 12:37:33;;;;;;;;;;;23.40;99.90;;;;;;4896932;29;20004;-96
2023/07/12 12:40:25;;;;;;;;;;;23.50;99.90;;;;;;4908792;29;20039;-96
2023/07/12 12:43:02;;;;;;;;;;;23.60;99.90;;;;;;4898776;29;19927;-96
2023/07/12 12:45:37;;;;;;;;;;;23.40;99.90;;;;;;4896050;29;20364;-96
2023/07/12 12:48:51;;;;;;;;;;;23.30;99.90;;;;;;4911674;29;19938;-96
2023/07/12 12:51:56;;;;;;;;;;;;;;;;;;;;;
2023/07/12 12:54:34;;;;;;;;;;;22.80;99.90;;;;;;4874752;29;20380;-94
2023/07/12 12:57:05;;;;;;;;;;;22.80;99.90;;;;;;4905981;29;19931;-96
2023/07/12 13:02:26;;;;;;;;;;;22.90;99.90;;;;;;4911240;29;19983;-96
2023/07/12 13:04:57;;;;;;;;;;;22.90;99.90;;;;;;4897404;29;19931;-96
2023/07/12 13:07:27;;;;;;;;;;;22.90;99.90;;;;;;4911184;29;19953;-96
2023/07/12 13:09:55;;;;;;;;;;;22.90;99.90;;;;;;4896409;29;19927;-95
2023/07/12 13:12:25;;;;;;;;;;;22.90;99.90;;;;;;4894901;29;19931;-95
2023/07/12 13:14:50;;;;;;;;;;;22.90;99.90;;;;;;4893385;29;19938;-95
2023/07/12 13:17:30;;;;;;;;;;;22.90;99.90;;;;;;4895977;29;20396;-96
2023/07/12 13:19:57;;;;;;;;;;;23.00;99.90;;;;;;4896099;29;20014;-96
2023/07/12 13:22:28;;;;;;;;;;;22.70;99.90;;;;;;4911328;29;19931;-96
2023/07/12 13:24:54;;;;;;;;;;;22.80;99.90;;;;;;4895625;29;20384;-95
2023/07/12 13:27:23;;;;;;;;;;;22.70;99.90;;;;;;4895766;29;19938;-96
2023/07/12 13:29:52;;;;;;;;;;;22.90;99.90;;;;;;4927347;29;19931;-95
2023/07/12 13:32:21;;;;;;;;;;;22.70;99.90;;;;;;4894926;29;19978;-96
2023/07/12 13:34:55;;;;;;;;;;;22.90;99.90;;;;;;4885896;29;20030;-96
2023/07/12 13:37:32;;;;;;;;;;;23.00;99.90;;;;;;4895815;29;20396;-96
2023/07/12 13:40:25;;;;;;;;;;;23.00;99.90;;;;;;4898417;29;19931;-96
2023/07/12 13:45:46;;;;;;;;;;;22.90;99.90;;;;;;4911491;29;19978;-96
2023/07/12 13:48:42;;;;;;;;;;;22.90;99.90;;;;;;4911670;29;19977;-96
2023/07/12 13:51:26;;;;;;;;;;;22.70;99.90;;;;;;4919350;29;19931;-95
2023/07/12 13:53:55;;;;;;;;;;;22.60;99.90;;;;;;4910819;29;19941;-96
2023/07/12 13:56:50;;;;;;;;;;;22.60;99.90;;;;;;4912137;29;20042;-96
2023/07/12 13:59:28;;;;;;;;;;;22.60;99.90;;;;;;4911280;29;19931;-96
2023/07/12 14:02:29;;;;;;;;;;;22.60;99.90;;;;;;4912495;29;19954;-96
2023/07/12 14:04:56;;;;;;;;;;;22.60;99.90;;;;;;4911855;29;19931;-96
2023/07/12 14:07:24;;;;;;;;;;;22.70;99.90;;;;;;4911374;29;20107;-96
2023/07/12 14:13:20;;;;;;;;;;;22.60;99.90;;;;;;4851937;29;19932;-96
2023/07/12 14:15:52;;;;;;;;;;;22.50;99.90;;;;;;4852592;29;19932;-96
2023/07/12 14:18:46;;;;;;;;;;;22.50;99.90;;;;;;4844867;29;20037;-96
2023/07/12 14:21:18;;;;;;;;;;;22.40;99.90;;;;;;4853490;29;19971;-96
2023/07/12 14:26:42;;;;;;;;;;;22.60;99.90;;;;;;4902854;29;20242;-95
2023/07/12 14:32:36;;;;;;;;;;;22.70;99.90;;;;;;4894325;29;20445;-94
2023/07/12 14:35:31;;;;;;;;;;;22.80;99.90;;;;;;4903869;29;19935;-94
2023/07/12 14:38:00;;;;;;;;;;;22.60;99.90;;;;;;4895367;29;20427;-95
2023/07/12 14:40:31;;;;;;;;;;;22.60;99.90;;;;;;4913511;29;19931;-96
2023/07/12 14:42:56;;;;;;;;;;;22.70;99.90;;;;;;4914555;29;20325;-94
2023/07/12 14:45:26;;;;;;;;;;;22.80;99.90;;;;;;4913861;29;19935;-95
2023/07/12 14:48:18;;;;;;;;;;;22.90;99.90;;;;;;4914715;29;19926;-94
2023/07/12 14:51:14;;;;;;;;;;;23.00;99.90;;;;;;4915270;29;19986;-95
2023/07/12 14:53:40;;;;;;;;;;;23.00;99.90;;;;;;4888284;29;20384;-96
2023/07/12 14:56:20;;;;;;;;;;;22.90;99.90;;;;;;4898685;29;19931;-94
2023/07/12 14:59:14;;;;;;;;;;;22.90;99.90;;;;;;4914367;29;19971;-93
2023/07/12 15:02:10;;;;;;;;;;;22.70;99.90;;;;;;4897646;29;19935;-94
2023/07/12 15:05:06;;;;;;;;;;;22.80;99.90;;;;;;4875154;29;20759;-94
2023/07/12 15:07:45;;;;;;;;;;;22.90;99.90;;;;;;4927673;29;19935;-95
2023/07/12 15:13:49;;;;;;;;;;;23.10;99.90;;;;;;4875857;29;19931;-94
2023/07/12 15:16:16;;;;;;;;;;;23.10;99.90;;;;;;4887616;29;19930;-94
2023/07/12 15:19:23;;;;;;;;;;;23.10;99.90;;;;;;4893662;29;19992;-95
2023/07/12 15:21:48;;;;;;;;;;;23.30;99.90;;;;;;4910111;29;19938;-93
2023/07/12 15:24:23;;;;;;;;;;;23.10;99.90;;;;;;4912964;29;19930;-95
2023/07/12 15:27:00;;;;;;;;;;;22.80;99.90;;;;;;4898777;29;20013;-94
2023/07/12 15:29:54;;;;;;;;;;;;;;;;;;;;;
2023/07/12 15:32:56;;;;;;;;;;;23.00;99.90;;;;;;4883992;29;20345;-95
2023/07/12 15:35:40;;;;;;;;;;;23.20;99.90;;;;;;4872959;29;19931;-93
2023/07/12 15:41:15;;;;;;;;;;;23.20;99.90;;;;;;4898082;29;19931;-94
2023/07/12 15:44:07;;;;;;;;;;;22.70;99.90;;;;;;4895075;29;19937;-95
2023/07/12 15:46:36;;;;;;;;;;;22.70;99.90;;;;;;4891006;29;20413;-94
2023/07/12 15:49:23;;;;;;;;;;;22.80;99.90;;;;;;4896832;29;19935;-95
2023/07/12 15:52:05;;;;;;;;;;;;;;;;;;;;;
2023/07/12 15:54:42;;;;;;;;;;;23.00;99.90;;;;;;4917339;29;19939;-94
2023/07/12 15:57:47;;;;;;;;;;;;;;;;;;;;;
2023/07/12 16:00:49;;;;;;;;;;;23.20;99.90;;;;;;4857353;29;19969;-95
2023/07/12 16:03:37;;;;;;;;;;;22.80;99.90;;;;;;4845405;29;19987;-96
2023/07/12 16:06:36;;;;;;;;;;;22.60;99.90;;;;;;4859552;29;19932;-95
2023/07/12 16:09:46;;;;;;;;;;;22.50;99.90;;;;;;4868345;29;20384;-95
2023/07/12 16:12:41;;;;;;;;;;;22.70;99.90;;;;;;4831371;29;20017;-95
2023/07/12 16:15:36;;;;;;;;;;;22.90;99.90;;;;;;4856258;29;19928;-95
2023/07/12 16:18:43;;;;;;;;;;;23.00;99.90;;;;;;4881718;29;19938;-95
2023/07/12 16:21:18;;;;;;;;;;;22.80;99.90;;;;;;4911388;29;19927;-94
2023/07/12 16:24:06;;;;;;;;;;;22.60;99.90;;;;;;4938133;29;20334;-95
2023/07/12 16:26:38;;;;;;;;;;;22.40;99.90;;;;;;4918420;29;19999;-96
2023/07/12 16:29:14;;;;;;;;;;;22.40;99.90;;;;;;4932825;29;20013;-95
2023/07/12 16:31:43;;;;;;;;;;;22.30;99.90;;;;;;4915523;29;20390;-95
2023/07/12 16:34:13;;;;;;;;;;;22.90;99.90;;;;;;4914517;29;20020;-95
2023/07/12 16:37:11;;;;;;;;;;;23.40;99.90;;;;;;4913740;29;21385;-95
2023/07/12 16:39:40;;;;;;;;;;;23.40;99.90;;;;;;4897543;29;19935;-95
2023/07/12 16:45:42;;;;;;;;;;;24.30;99.90;;;;;;4852391;29;20327;-95
2023/07/12 16:48:23;;;;;;;;;;;24.20;99.90;;;;;;4897746;29;19931;-96
2023/07/12 16:51:13;;;;;;;;;;;23.80;99.90;;;;;;4911022;29;20210;-95
2023/07/12 16:53:39;;;;;;;;;;;23.40;99.90;;;;;;4895458;29;19931;-96
2023/07/12 16:56:30;;;;;;;;;;;23.80;99.90;;;;;;4899308;29;19977;-94
2023/07/12 16:59:11;;;;;;;;;;;24.20;99.90;;;;;;4895434;29;20030;-94
2023/07/12 17:01:41;;;;;;;;;;;24.40;99.90;;;;;;4905029;29;19931;-95
2023/07/12 17:04:12;;;;;;;;;;;24.60;99.80;;;;;;4895046;29;20249;-95
2023/07/12 17:06:51;;;;;;;;;;;25.10;99.00;;;;;;4927527;29;19931;-95
2023/07/12 17:09:25;;;;;;;;;;;25.30;98.60;;;;;;4899862;29;19927;-96
2023/07/12 17:12:48;;;;;;;;;;;25.40;98.10;;;;;;4914141;29;19974;-95
2023/07/12 17:15:32;;;;;;;;;;;25.90;97.00;;;;;;4828149;29;19968;-94
2023/07/12 17:18:16;;;;;;;;;;;26.10;96.20;;;;;;4842313;29;20097;-95
2023/07/12 17:24:51;;;;;;;;;;;25.90;95.30;;;;;;4781071;29;19951;-95
2023/07/12 17:30:36;;;;;;;;;;;25.40;94.50;;;;;;4836544;29;19932;-96
2023/07/12 17:39:24;;;;;;;;;;;26.40;93.40;;;;;;4785218;29;19989;-96
2023/07/12 17:44:56;;;;;;;;;;;26.10;92.40;;;;;;4840310;29;20598;-95
2023/07/12 17:47:32;;;;;;;;;;;26.20;92.50;;;;;;4856549;29;19932;-95
2023/07/12 17:50:17;;;;;;;;;;;26.40;92.70;;;;;;4822792;29;20685;-96
2023/07/12 17:53:28;;;;;;;;;;;26.50;92.10;;;;;;4805267;29;19928;-96
2023/07/12 17:56:24;;;;;;;;;;;26.60;92.20;;;;;;4747838;30;20464;-96
2023/07/12 17:59:22;;;;;;;;;;;;;;;;;;;;;
2023/07/12 18:02:18;;;;;;;;;;;26.60;91.90;;;;;;4780022;29;19987;-96
2023/07/12 18:05:22;;;;;;;;;;;26.50;90.80;;;;;;4764225;30;20318;-96
2023/07/12 18:08:32;;;;;;;;;;;26.30;91.10;;;;;;4800560;29;19976;-95
2023/07/12 18:11:31;;;;;;;;;;;26.10;91.10;;;;;;4764105;30;19976;-96
2023/07/12 18:14:07;;;;;;;;;;;25.60;91.30;;;;;;4782909;29;19933;-96
2023/07/12 18:16:44;;;;;;;;;;;25.00;92.10;;;;;;4796371;29;20344;-96
2023/07/12 18:22:51;;;;;;;;;;;23.90;93.50;;;;;;4735468;30;20037;-95
2023/07/12 18:29:00;;;;;;;;;;;23.00;94.90;;;;;;4703169;30;19934;-95
2023/07/12 18:31:36;;;;;;;;;;;22.50;95.80;;;;;;4730742;30;19934;-95
2023/07/12 18:37:17;;;;;;;;;;;21.90;97.00;;;;;;4835066;29;19940;-96
2023/07/12 18:43:37;;;;;;;;;;;21.30;97.60;;;;;;4787301;29;19973;-96
2023/07/12 18:46:32;;;;;;;;;;;21.20;98.40;;;;;;4788973;29;20413;-96
2023/07/12 18:49:29;;;;;;;;;;;21.00;98.20;;;;;;4837609;29;20020;-96
2023/07/12 18:55:34;;;;;;;;;;;20.80;99.20;;;;;;4919364;29;20003;-96
2023/07/12 18:58:18;;;;;;;;;;;20.70;99.70;;;;;;4860885;29;20405;-96
2023/07/12 19:03:48;;;;;;;;;;;20.40;99.90;;;;;;4859211;29;19916;-96
2023/07/12 19:09:51;;;;;;;;;;;20.30;99.90;;;;;;4898816;29;19927;-96
2023/07/12 19:12:18;;;;;;;;;;;20.20;99.90;;;;;;4847865;29;20413;-95
2023/07/12 19:15:16;;;;;;;;;;;20.10;99.90;;;;;;4861411;29;19942;-95
2023/07/12 19:27:58;;;;;;;;;;;19.60;99.90;;;;;;4844351;29;19928;-96
2023/07/12 19:30:28;;;;;;;;;;;19.60;99.90;;;;;;4849755;29;19979;-96
2023/07/12 19:33:01;;;;;;;;;;;19.50;99.90;;;;;;4872142;29;19931;-96
2023/07/12 19:39:12;;;;;;;;;;;;;;;;;;;;;
2023/07/12 19:41:47;;;;;;;;;;;19.30;99.90;;;;;;4805704;29;19941;-95
2023/07/12 19:44:42;;;;;;;;;;;19.20;99.90;;;;;;4807037;29;20398;-96
2023/07/12 19:50:29;;;;;;;;;;;19.10;99.90;;;;;;4909267;23;21028;-87
2023/07/12 19:52:55;;;;;;;;;;;19.00;99.90;;;;;;4894854;29;20252;-85
2023/07/12 19:55:22;;;;;;;;;;;19.00;99.90;;;;;;4877777;29;19934;-85
2023/07/12 19:57:48;;;;;;;;;;;18.90;99.90;;;;;;4893405;29;19928;-87
2023/07/12 20:00:14;;;;;;;;;;;18.80;99.90;;;;;;4893542;29;19933;-86
2023/07/12 20:02:40;;;;;;;;;;;18.70;99.90;;;;;;4893786;29;19932;-86
2023/07/12 20:05:07;;;;;;;;;;;18.60;99.90;;;;;;4878522;29;19930;-86
2023/07/12 20:07:34;;;;;;;;;;;18.60;99.90;;;;;;4893602;29;20018;-87
2023/07/12 20:10:00;;;;;;;;;;;18.50;99.90;;;;;;4886964;29;19995;-86
2023/07/12 20:12:26;;;;;;;;;;;18.50;99.90;;;;;;4877744;29;19935;-87
2023/07/12 20:14:53;;;;;;;;;;;18.40;99.90;;;;;;4893903;29;20034;-87
2023/07/12 20:17:20;;;;;;;;;;;18.30;99.90;;;;;;4891891;29;20239;-86
2023/07/12 20:19:46;;;;;;;;;;;18.30;99.90;;;;;;4893671;29;19927;-87
2023/07/12 20:22:13;;;;;;;;;;;18.30;99.90;;;;;;4878453;29;19935;-86
2023/07/12 20:24:40;;;;;;;;;;;18.30;99.90;;;;;;4877076;29;20397;-86
2023/07/12 20:27:06;;;;;;;;;;;18.20;99.90;;;;;;4898363;29;19928;-87
2023/07/12 20:29:32;;;;;;;;;;;18.20;99.90;;;;;;4877909;29;20402;-87
2023/07/12 20:31:58;;;;;;;;;;;18.00;99.90;;;;;;4876685;29;20376;-86
2023/07/12 20:34:25;;;;;;;;;;;17.90;99.90;;;;;;4878127;29;19936;-87
2023/07/12 20:36:52;;;;;;;;;;;17.90;99.90;;;;;;4893079;29;20307;-89
2023/07/12 20:39:19;;;;;;;;;;;17.90;99.90;;;;;;4876223;29;19967;-89
2023/07/12 20:41:45;;;;;;;;;;;17.80;99.90;;;;;;4877321;29;19938;-89
2023/07/12 20:44:11;;;;;;;;;;;17.80;99.90;;;;;;4878372;29;19935;-88
2023/07/12 20:46:37;;;;;;;;;;;17.70;99.90;;;;;;4905115;29;19927;-89
2023/07/12 20:49:05;;;;;;;;;;;17.70;99.90;;;;;;4877755;29;20361;-89
2023/07/12 20:51:32;;;;;;;;;;;17.70;99.90;;;;;;4893499;29;19970;-89
2023/07/12 20:54:01;;;;;;;;;;;17.60;99.90;;;;;;4907774;29;19932;-89
2023/07/12 20:56:26;;;;;;;;;;;17.60;99.90;;;;;;4907611;29;19931;-89
2023/07/12 20:58:53;;;;;;;;;;;17.60;99.90;;;;;;4896212;29;20545;-89
2023/07/12 21:01:19;;;;;;;;;;;17.50;99.90;;;;;;4893393;29;20018;-89
2023/07/12 21:03:45;;;;;;;;;;;17.50;99.90;;;;;;4905967;29;19991;-87
2023/07/12 21:06:11;;;;;;;;;;;17.50;99.90;;;;;;4893297;29;20502;-87
2023/07/12 21:08:37;;;;;;;;;;;17.40;99.90;;;;;;4905505;29;19931;-87
2023/07/12 21:11:03;;;;;;;;;;;17.30;99.90;;;;;;4906530;29;19983;-87
2023/07/12 21:13:29;;;;;;;;;;;17.30;99.90;;;;;;4892873;29;19932;-87
2023/07/12 21:15:57;;;;;;;;;;;17.30;99.90;;;;;;4901067;29;19927;-87
2023/07/12 21:18:22;;;;;;;;;;;17.20;99.90;;;;;;4877414;29;20376;-87
2023/07/12 21:20:49;;;;;;;;;;;17.20;99.90;;;;;;4889208;29;19931;-87
2023/07/12 21:23:14;;;;;;;;;;;17.10;99.90;;;;;;4878078;29;19931;-88
2023/07/12 21:25:41;;;;;;;;;;;17.10;99.90;;;;;;4900170;29;20292;-88
2023/07/12 21:28:07;;;;;;;;;;;17.10;99.90;;;;;;4906001;29;19931;-88
2023/07/12 21:30:33;;;;;;;;;;;17.00;99.90;;;;;;4882750;29;19935;-88
2023/07/12 21:32:59;;;;;;;;;;;17.00;99.90;;;;;;4897849;29;20352;-88
2023/07/12 21:35:25;;;;;;;;;;;17.00;99.90;;;;;;4902534;29;19978;-88
2023/07/12 21:37:51;;;;;;;;;;;17.00;99.90;;;;;;4877495;29;20296;-88
2023/07/12 21:40:17;;;;;;;;;;;17.00;99.90;;;;;;4893563;29;19939;-88
2023/07/12 21:42:42;;;;;;;;;;;17.00;99.90;;;;;;4891792;29;19982;-88
2023/07/12 21:45:08;;;;;;;;;;;17.00;99.90;;;;;;4877734;29;19940;-88
2023/07/12 21:47:34;;;;;;;;;;;17.00;99.90;;;;;;4892818;29;20026;-87
2023/07/12 21:49:59;;;;;;;;;;;16.90;99.90;;;;;;4893152;29;19935;-88
2023/07/12 21:52:25;;;;;;;;;;;16.90;99.90;;;;;;4892112;29;19934;-87
2023/07/12 21:54:51;;;;;;;;;;;16.90;99.90;;;;;;4877065;29;19935;-87
2023/07/12 21:57:16;;;;;;;;;;;16.90;99.90;;;;;;4876826;29;20046;-88
2023/07/12 21:59:47;;;;;;;;;;;16.90;99.90;;;;;;4877472;29;19931;-87
2023/07/12 22:02:18;;;;;;;;;;;16.90;99.90;;;;;;4896262;29;19975;-88
2023/07/12 22:04:44;;;;;;;;;;;16.80;99.90;;;;;;4893648;29;20203;-88
2023/07/12 22:07:10;;;;;;;;;;;16.80;99.90;;;;;;4904370;29;20363;-86
2023/07/12 22:09:35;;;;;;;;;;;16.70;99.90;;;;;;4876395;29;20332;-87
2023/07/12 22:12:01;;;;;;;;;;;16.70;99.90;;;;;;4893456;29;20002;-87
2023/07/12 22:14:26;;;;;;;;;;;16.60;99.90;;;;;;4877689;29;20038;-87
2023/07/12 22:16:52;;;;;;;;;;;16.60;99.90;;;;;;4891690;29;19936;-87
2023/07/12 22:19:18;;;;;;;;;;;16.60;99.90;;;;;;4878511;29;19932;-88
2023/07/12 22:21:43;;;;;;;;;;;16.50;99.90;;;;;;4893774;29;20268;-88
2023/07/12 22:24:09;;;;;;;;;;;16.50;99.90;;;;;;4893289;29;19927;-87
2023/07/12 22:26:35;;;;;;;;;;;16.50;99.90;;;;;;4876635;29;19928;-87
2023/07/12 22:29:00;;;;;;;;;;;16.50;99.90;;;;;;4893864;29;19971;-88
2023/07/12 22:31:26;;;;;;;;;;;16.50;99.90;;;;;;4895106;29;19927;-87
2023/07/12 22:33:52;;;;;;;;;;;16.40;99.90;;;;;;4896171;29;19980;-87
2023/07/12 22:36:18;;;;;;;;;;;16.40;99.90;;;;;;4895928;29;19939;-88
2023/07/12 22:38:45;;;;;;;;;;;16.40;99.90;;;;;;4879923;29;20018;-87
2023/07/12 22:41:12;;;;;;;;;;;16.40;99.90;;;;;;4879870;29;19992;-87
2023/07/12 22:43:38;;;;;;;;;;;16.40;99.90;;;;;;4880633;29;19931;-87
2023/07/12 22:46:04;;;;;;;;;;;16.50;99.90;;;;;;4877543;29;19936;-88
2023/07/12 22:48:30;;;;;;;;;;;16.50;99.90;;;;;;4886044;29;20337;-88
2023/07/12 22:50:55;;;;;;;;;;;16.50;99.90;;;;;;4878129;29;19934;-87
2023/07/12 22:53:21;;;;;;;;;;;16.50;99.90;;;;;;4861479;29;20039;-88
2023/07/12 22:55:57;;;;;;;;;;;16.50;99.90;;;;;;4892517;29;20002;-87
2023/07/12 22:58:23;;;;;;;;;;;16.50;99.90;;;;;;4880335;29;19931;-87
2023/07/12 23:00:49;;;;;;;;;;;16.40;99.90;;;;;;4895638;29;20408;-88
2023/07/12 23:03:14;;;;;;;;;;;16.50;99.90;;;;;;4896342;29;20415;-88
2023/07/12 23:05:40;;;;;;;;;;;16.50;99.90;;;;;;4879298;29;20010;-87
2023/07/12 23:08:07;;;;;;;;;;;16.50;99.90;;;;;;4897637;29;19967;-88
2023/07/12 23:10:39;;;;;;;;;;;16.50;99.90;;;;;;4907391;29;19974;-87
2023/07/12 23:13:05;;;;;;;;;;;16.40;99.90;;;;;;4895641;29;19932;-87
2023/07/12 23:15:32;;;;;;;;;;;16.50;99.90;;;;;;4895940;29;19927;-88
2023/07/12 23:17:58;;;;;;;;;;;16.50;99.90;;;;;;4879502;29;19931;-88
2023/07/12 23:20:27;;;;;;;;;;;16.40;99.90;;;;;;4879273;29;20038;-87
2023/07/12 23:22:53;;;;;;;;;;;16.50;99.90;;;;;;4896011;29;19935;-87
2023/07/12 23:25:25;;;;;;;;;;;16.50;99.90;;;;;;4893100;29;19924;-87
2023/07/12 23:27:54;;;;;;;;;;;16.50;99.90;;;;;;4896337;29;19934;-87
2023/07/12 23:30:20;;;;;;;;;;;16.50;99.90;;;;;;4925209;29;19937;-86
2023/07/12 23:32:46;;;;;;;;;;;16.50;99.90;;;;;;4894772;29;20022;-87
2023/07/12 23:35:12;;;;;;;;;;;16.50;99.90;;;;;;4878989;29;20014;-87
2023/07/12 23:37:38;;;;;;;;;;;16.50;99.90;;;;;;4910403;29;20173;-87
2023/07/12 23:40:07;;;;;;;;;;;16.40;99.90;;;;;;4867209;29;19942;-87
2023/07/12 23:42:34;;;;;;;;;;;16.40;99.90;;;;;;4909468;29;19928;-87
2023/07/12 23:45:00;;;;;;;;;;;16.40;99.90;;;;;;4879800;29;20315;-87
2023/07/12 23:47:30;;;;;;;;;;;16.30;99.90;;;;;;4883882;29;20407;-87
2023/07/12 23:50:00;;;;;;;;;;;16.30;99.90;;;;;;4907401;29;19983;-87
2023/07/12 23:52:26;;;;;;;;;;;16.20;99.90;;;;;;4894792;29;19983;-87
2023/07/12 23:54:52;;;;;;;;;;;16.10;99.90;;;;;;4906003;29;19936;-88
2023/07/12 23:57:18;;;;;;;;;;;16.00;99.90;;;;;;4895092;29;19970;-88
2023/07/12 23:59:44;;;;;;;;;;;16.10;99.90;;;;;;4884464;29;20295;-89
